Time;durP1;ratioP1;P1;durP2;ratioP2;P2;SDS_P1;SDS_P2;PMS_P1;PMS_P2;Temp;Humidity;BMP_temperature;BMP_pressure;BME280_temperature;BME280_humidity;BME280_pressure;Samples;Min_cycle;Max_cycle;Signal;HPM_P1;HPM_P2
2023/10/21 00:00:30;;;;;;;1.87;0.83;;;15.60;99.90;;;;;;5072733;28;20279;-78
2023/10/21 00:02:56;;;;;;;6.00;1.10;;;15.60;99.90;;;;;;5072543;28;21018;-76
2023/10/21 00:05:21;;;;;;;3.60;0.90;;;15.60;99.90;;;;;;5072409;28;20648;-75
2023/10/21 00:07:47;;;;;;;3.87;0.70;;;15.50;99.90;;;;;;5072496;28;20175;-76
2023/10/21 00:10:13;;;;;;;1.90;0.80;;;15.50;99.90;;;;;;5072550;28;20210;-75
2023/10/21 00:12:39;;;;;;;1.53;0.80;;;15.50;99.90;;;;;;5090335;28;20171;-75
2023/10/21 00:15:09;;;;;;;1.93;1.07;;;15.50;99.90;;;;;;5072407;28;20171;-75
2023/10/21 00:17:35;;;;;;;1.40;0.73;;;15.50;99.90;;;;;;5072579;28;20602;-75
2023/10/21 00:20:03;;;;;;;3.33;0.80;;;15.50;99.90;;;;;;5072760;28;20586;-77
2023/10/21 00:22:29;;;;;;;1.90;0.77;;;15.40;99.90;;;;;;5072717;28;20263;-77
2023/10/21 00:24:54;;;;;;;1.80;0.73;;;15.40;99.90;;;;;;5090541;28;20778;-77
2023/10/21 00:27:20;;;;;;;1.80;0.70;;;15.40;99.90;;;;;;5090830;28;20175;-77
2023/10/21 00:29:46;;;;;;;2.80;0.90;;;15.40;99.90;;;;;;5093561;28;20189;-78
2023/10/21 00:32:11;;;;;;;2.23;0.90;;;15.40;99.90;;;;;;5074699;28;20172;-77
2023/10/21 00:34:40;;;;;;;2.20;0.90;;;15.40;99.90;;;;;;5055745;28;20681;-77
2023/10/21 00:37:07;;;;;;;3.50;1.10;;;15.40;99.90;;;;;;5056119;28;20194;-77
2023/10/21 00:39:34;;;;;;;2.17;0.80;;;15.40;99.90;;;;;;5056538;28;20593;-77
2023/10/21 00:42:04;;;;;;;3.93;1.00;;;15.40;99.90;;;;;;5091550;28;21150;-78
2023/10/21 00:44:30;;;;;;;1.83;0.90;;;15.40;99.90;;;;;;5091173;28;20586;-78
2023/10/21 00:46:59;;;;;;;1.40;0.77;;;15.40;99.90;;;;;;5055407;28;20629;-78
2023/10/21 00:49:28;;;;;;;1.93;0.70;;;15.40;99.90;;;;;;5050940;28;20590;-78
2023/10/21 00:51:54;;;;;;;3.10;0.90;;;15.40;99.90;;;;;;5064077;28;20586;-78
2023/10/21 00:54:21;;;;;;;2.13;0.90;;;15.40;99.90;;;;;;5064261;28;21182;-78
2023/10/21 00:56:47;;;;;;;1.67;0.80;;;15.30;99.90;;;;;;5075593;28;20678;-78
2023/10/21 00:59:13;;;;;;;2.87;0.80;;;15.30;99.90;;;;;;5075950;28;20581;-78
2023/10/21 01:01:39;;;;;;;1.63;0.80;;;15.30;99.90;;;;;;5059152;28;20183;-78
2023/10/21 01:04:05;;;;;;;1.70;0.90;;;15.30;99.90;;;;;;5075604;28;20601;-78
2023/10/21 01:06:34;;;;;;;4.33;1.43;;;15.30;99.90;;;;;;5060298;28;20641;-78
2023/10/21 01:08:59;;;;;;;2.57;1.20;;;15.30;99.90;;;;;;5069812;28;20553;-78
2023/10/21 01:11:39;;;;;;;2.00;0.80;;;15.30;99.90;;;;;;5094286;28;20574;-78
2023/10/21 01:14:07;;;;;;;2.37;1.53;;;15.30;99.90;;;;;;5075302;28;20597;-77
2023/10/21 01:16:33;;;;;;;3.20;0.90;;;15.30;99.90;;;;;;5075545;28;20207;-78
2023/10/21 01:18:58;;;;;;;1.60;0.90;;;15.20;99.90;;;;;;5058818;28;20608;-78
2023/10/21 01:21:25;;;;;;;3.83;0.90;;;15.20;99.90;;;;;;5058523;28;20633;-78
2023/10/21 01:23:51;;;;;;;1.67;0.80;;;15.20;99.90;;;;;;5075194;28;21009;-78
2023/10/21 01:26:16;;;;;;;4.13;0.93;;;15.20;99.90;;;;;;5058743;28;20736;-78
2023/10/21 01:28:42;;;;;;;3.00;0.80;;;15.20;99.90;;;;;;5075315;28;20190;-78
2023/10/21 01:31:07;;;;;;;2.57;0.90;;;15.20;99.90;;;;;;5058855;28;20164;-78
2023/10/21 01:33:33;;;;;;;2.57;0.97;;;15.20;99.90;;;;;;5074771;28;20172;-78
2023/10/21 01:35:59;;;;;;;3.33;1.00;;;15.20;99.90;;;;;;5042031;28;20734;-78
2023/10/21 01:38:24;;;;;;;2.30;1.70;;;15.20;99.90;;;;;;5075479;28;20179;-78
2023/10/21 01:40:50;;;;;;;2.33;1.10;;;15.20;99.90;;;;;;5093840;28;20179;-78
2023/10/21 01:43:16;;;;;;;2.73;1.00;;;15.20;99.90;;;;;;5075487;28;20199;-78
2023/10/21 01:45:42;;;;;;;2.13;1.33;;;15.20;99.90;;;;;;5076114;28;20576;-78
2023/10/21 01:48:08;;;;;;;2.70;1.17;;;15.20;99.90;;;;;;5075057;28;20225;-78
2023/10/21 01:50:35;;;;;;;2.00;1.00;;;15.20;99.90;;;;;;5058518;28;20829;-78
2023/10/21 01:53:01;;;;;;;3.77;1.20;;;15.30;99.90;;;;;;5092692;28;20582;-78
2023/10/21 01:55:27;;;;;;;2.30;1.10;;;15.30;99.90;;;;;;5092951;28;21071;-78
2023/10/21 01:57:52;;;;;;;1.73;1.30;;;15.30;99.90;;;;;;5074707;28;20171;-78
2023/10/21 02:00:19;;;;;;;2.33;1.20;;;15.30;99.90;;;;;;5074308;28;20538;-78
2023/10/21 02:02:52;;;;;;;2.70;1.07;;;15.30;99.90;;;;;;5092488;28;20183;-78
2023/10/21 02:05:19;;;;;;;1.80;0.90;;;15.30;99.90;;;;;;5057884;28;21138;-78
2023/10/21 02:07:46;;;;;;;2.30;1.23;;;15.30;99.90;;;;;;5057908;28;20604;-78
2023/10/21 02:10:12;;;;;;;3.00;1.20;;;15.30;99.90;;;;;;5041344;28;20582;-78
2023/10/21 02:12:38;;;;;;;2.90;1.30;;;15.30;99.90;;;;;;5074459;28;20600;-78
2023/10/21 02:15:06;;;;;;;2.43;1.13;;;15.40;99.90;;;;;;5057775;28;20589;-78
2023/10/21 02:17:32;;;;;;;2.20;1.30;;;15.40;99.90;;;;;;5058018;28;21146;-78
2023/10/21 02:19:58;;;;;;;3.60;1.50;;;15.40;99.90;;;;;;5058658;28;20588;-78
2023/10/21 02:22:25;;;;;;;4.57;1.37;;;15.40;99.90;;;;;;5061129;28;20728;-78
2023/10/21 02:24:53;;;;;;;4.00;1.23;;;15.40;99.90;;;;;;5074184;28;20729;-78
2023/10/21 02:27:20;;;;;;;3.73;1.30;;;15.50;99.90;;;;;;5057679;28;20600;-78
2023/10/21 02:29:45;;;;;;;2.80;1.03;;;15.50;99.90;;;;;;5057492;28;20574;-78
2023/10/21 02:32:11;;;;;;;2.73;2.37;;;15.50;99.90;;;;;;5057172;28;20591;-78
2023/10/21 02:34:37;;;;;;;2.73;1.40;;;15.50;99.90;;;;;;5057141;28;20241;-78
2023/10/21 02:37:03;;;;;;;2.37;1.50;;;15.50;99.90;;;;;;5074156;28;20671;-78
2023/10/21 02:39:29;;;;;;;3.93;2.33;;;15.50;99.90;;;;;;5092224;28;20255;-78
2023/10/21 02:41:55;;;;;;;3.73;1.40;;;15.50;99.90;;;;;;5040711;28;20690;-78
2023/10/21 02:44:21;;;;;;;2.27;1.30;;;15.50;99.90;;;;;;5091967;28;20592;-78
2023/10/21 02:46:48;;;;;;;2.67;1.20;;;15.50;99.90;;;;;;5073388;28;20653;-78
2023/10/21 02:49:14;;;;;;;4.43;1.70;;;15.50;99.90;;;;;;5057051;28;20700;-78
2023/10/21 02:51:41;;;;;;;3.40;1.37;;;15.50;99.90;;;;;;5057023;28;20685;-78
2023/10/21 02:54:07;;;;;;;2.90;1.43;;;15.50;99.90;;;;;;5073679;28;20722;-78
2023/10/21 02:56:34;;;;;;;2.43;1.30;;;15.50;99.90;;;;;;5057420;28;20639;-79
2023/10/21 02:59:00;;;;;;;4.43;1.60;;;15.50;99.90;;;;;;5076366;28;20586;-78
2023/10/21 03:01:27;;;;;;;3.10;1.20;;;15.50;99.90;;;;;;5091862;28;20586;-78
2023/10/21 03:03:53;;;;;;;1.70;1.50;;;15.50;99.90;;;;;;5091415;28;20638;-78
2023/10/21 03:06:21;;;;;;;2.13;1.13;;;15.40;99.90;;;;;;5091371;28;21205;-79
2023/10/21 03:08:47;;;;;;;1.60;1.13;;;15.40;99.90;;;;;;5071160;28;20586;-78
2023/10/21 03:11:14;;;;;;;1.80;1.00;;;15.40;99.90;;;;;;5049953;28;20582;-78
2023/10/21 03:13:40;;;;;;;2.90;1.20;;;15.40;99.90;;;;;;5073190;28;21179;-78
2023/10/21 03:16:07;;;;;;;4.80;1.17;;;15.40;99.90;;;;;;5056787;28;20610;-78
2023/10/21 03:18:35;;;;;;;1.43;0.87;;;15.40;99.90;;;;;;5073385;28;20684;-79
2023/10/21 03:21:01;;;;;;;1.50;0.83;;;15.40;99.90;;;;;;5091594;28;21043;-78
2023/10/21 03:23:26;;;;;;;1.53;0.80;;;15.40;99.90;;;;;;5056401;28;20590;-78
2023/10/21 03:25:56;;;;;;;2.33;0.80;;;15.40;99.90;;;;;;5072952;28;20725;-78
2023/10/21 03:28:23;;;;;;;1.73;0.80;;;15.50;99.90;;;;;;5057488;28;20648;-78
2023/10/21 03:30:49;;;;;;;1.40;0.80;;;15.50;99.90;;;;;;5091267;28;20597;-78
2023/10/21 03:33:16;;;;;;;1.40;0.70;;;15.50;99.90;;;;;;5073273;28;20596;-78
2023/10/21 03:35:55;;;;;;;3.33;0.90;;;15.50;99.90;;;;;;5050467;28;21208;-78
2023/10/21 03:38:21;;;;;;;2.43;0.83;;;15.50;99.90;;;;;;5056362;28;20586;-78
2023/10/21 03:40:58;;;;;;;1.30;0.70;;;15.50;99.90;;;;;;5056179;28;20574;-78
2023/10/21 03:43:25;;;;;;;2.20;0.80;;;15.50;99.90;;;;;;5056031;28;20593;-78
2023/10/21 03:45:52;;;;;;;1.80;0.70;;;15.50;99.90;;;;;;5055780;28;20656;-78
2023/10/21 03:48:18;;;;;;;1.30;0.77;;;15.50;99.90;;;;;;5073023;28;20573;-78
2023/10/21 03:50:44;;;;;;;1.60;0.70;;;15.50;99.90;;;;;;5056216;28;20581;-78
2023/10/21 03:53:11;;;;;;;2.77;0.80;;;15.50;99.90;;;;;;5072751;28;20614;-78
2023/10/21 03:55:37;;;;;;;1.83;0.80;;;15.50;99.90;;;;;;5090724;28;20613;-78
2023/10/21 03:58:04;;;;;;;2.13;0.80;;;15.50;99.90;;;;;;5072895;28;20614;-78
2023/10/21 04:00:29;;;;;;;1.97;0.77;;;15.50;99.90;;;;;;5056107;28;21185;-78
2023/10/21 04:02:55;;;;;;;1.50;0.70;;;15.50;99.90;;;;;;5072406;28;20688;-74
2023/10/21 04:05:21;;;;;;;1.57;0.70;;;15.60;99.90;;;;;;5090610;28;20211;-74
2023/10/21 04:07:46;;;;;;;1.40;0.80;;;15.60;99.90;;;;;;5090744;28;20184;-75
2023/10/21 04:10:12;;;;;;;2.87;1.13;;;15.60;99.90;;;;;;5072695;28;20180;-74
2023/10/21 04:12:39;;;;;;;2.13;1.37;;;15.60;99.90;;;;;;5092187;28;20221;-74
2023/10/21 04:15:07;;;;;;;1.90;1.30;;;15.60;99.90;;;;;;5072534;28;20255;-74
2023/10/21 04:17:34;;;;;;;3.70;1.60;;;15.60;99.90;;;;;;5072659;28;20570;-74
2023/10/21 04:19:59;;;;;;;2.63;1.20;;;15.70;99.90;;;;;;5072469;28;20581;-74
2023/10/21 04:22:25;;;;;;;2.90;1.40;;;15.60;99.90;;;;;;5072903;28;20680;-74
2023/10/21 04:24:51;;;;;;;1.50;1.10;;;15.70;99.90;;;;;;5094437;28;20179;-76
2023/10/21 04:27:17;;;;;;;1.83;1.10;;;15.70;99.90;;;;;;5076599;28;20172;-75
2023/10/21 04:29:42;;;;;;;2.70;1.10;;;15.70;99.90;;;;;;5076511;28;20187;-75
2023/10/21 04:32:08;;;;;;;2.97;1.37;;;15.70;99.90;;;;;;5059583;28;20198;-75
2023/10/21 04:34:33;;;;;;;1.80;1.10;;;15.70;99.90;;;;;;5094460;28;20187;-75
2023/10/21 04:36:59;;;;;;;2.27;1.17;;;15.70;99.90;;;;;;5076306;28;20559;-75
2023/10/21 04:39:25;;;;;;;1.97;0.90;;;15.70;99.90;;;;;;5076476;28;20182;-75
2023/10/21 04:41:50;;;;;;;1.97;0.90;;;15.70;99.90;;;;;;5094412;28;20175;-75
2023/10/21 04:44:16;;;;;;;2.60;1.10;;;15.70;99.90;;;;;;5094365;28;20163;-75
2023/10/21 04:46:42;;;;;;;2.03;0.70;;;15.60;99.90;;;;;;5075941;28;20619;-75
2023/10/21 04:49:08;;;;;;;1.53;0.80;;;15.60;99.90;;;;;;5062280;28;20171;-75
2023/10/21 04:51:33;;;;;;;2.40;1.10;;;15.60;99.90;;;;;;5094514;28;20233;-75
2023/10/21 04:53:59;;;;;;;1.70;0.70;;;15.50;99.90;;;;;;5059080;28;20171;-75
2023/10/21 04:56:28;;;;;;;1.60;0.90;;;15.50;99.90;;;;;;5075859;28;20196;-75
2023/10/21 04:58:53;;;;;;;1.40;0.70;;;15.40;99.90;;;;;;5076080;28;20175;-75
2023/10/21 05:01:19;;;;;;;1.93;0.80;;;15.30;99.90;;;;;;5075842;28;20991;-75
2023/10/21 05:03:45;;;;;;;1.70;1.00;;;15.30;99.90;;;;;;5075197;28;20233;-78
2023/10/21 05:06:11;;;;;;;2.47;0.63;;;15.30;99.90;;;;;;5075954;28;20200;-78
2023/10/21 05:08:36;;;;;;;2.23;0.70;;;15.20;99.90;;;;;;5094049;28;20179;-78
2023/10/21 05:11:02;;;;;;;1.60;0.70;;;15.20;99.90;;;;;;5075836;28;21222;-78
2023/10/21 05:13:28;;;;;;;1.33;0.70;;;15.10;99.90;;;;;;5075633;28;20538;-78
2023/10/21 05:15:54;;;;;;;1.80;1.00;;;15.10;99.90;;;;;;5075689;28;20244;-78
2023/10/21 05:18:20;;;;;;;2.90;1.10;;;15.10;99.90;;;;;;5086254;28;20215;-78
2023/10/21 05:20:46;;;;;;;2.73;1.03;;;15.10;99.90;;;;;;5073078;28;20637;-78
2023/10/21 05:23:11;;;;;;;2.90;0.90;;;15.10;99.90;;;;;;5071567;28;20183;-78
2023/10/21 05:25:37;;;;;;;2.20;0.90;;;15.10;99.90;;;;;;5083913;28;20645;-78
2023/10/21 05:28:03;;;;;;;2.10;0.77;;;15.10;99.90;;;;;;5095061;28;20202;-78
2023/10/21 05:30:29;;;;;;;2.77;1.10;;;15.10;99.90;;;;;;5075604;28;20175;-78
2023/10/21 05:32:55;;;;;;;2.43;1.20;;;15.10;99.90;;;;;;5093287;28;20947;-78
2023/10/21 05:35:21;;;;;;;2.43;1.00;;;15.10;99.90;;;;;;5074422;28;20206;-78
2023/10/21 05:37:47;;;;;;;3.13;0.90;;;15.10;99.90;;;;;;5093441;28;20255;-78
2023/10/21 05:40:13;;;;;;;1.90;1.00;;;15.10;99.90;;;;;;5075519;28;20672;-78
2023/10/21 05:42:39;;;;;;;1.97;1.13;;;15.10;99.90;;;;;;5093301;28;20639;-78
2023/10/21 05:45:08;;;;;;;2.27;1.20;;;15.10;99.90;;;;;;5074656;28;20641;-78
2023/10/21 05:47:35;;;;;;;1.33;0.70;;;15.10;99.90;;;;;;5058414;28;20586;-78
2023/10/21 05:50:02;;;;;;;1.60;0.80;;;15.10;99.90;;;;;;5058361;28;21139;-79
2023/10/21 05:52:28;;;;;;;2.50;0.83;;;15.10;99.90;;;;;;5092787;28;20612;-79
2023/10/21 05:54:55;;;;;;;1.40;0.90;;;15.10;99.90;;;;;;5092922;28;20590;-79
2023/10/21 05:57:21;;;;;;;1.67;0.80;;;15.10;99.90;;;;;;5075004;28;20627;-79
2023/10/21 05:59:47;;;;;;;2.87;0.90;;;15.10;99.90;;;;;;5093193;28;20635;-79
2023/10/21 06:02:13;;;;;;;1.73;1.10;;;15.10;99.90;;;;;;5075281;28;20586;-79
2023/10/21 06:04:39;;;;;;;1.70;0.80;;;15.20;99.90;;;;;;5077934;28;20600;-79
2023/10/21 06:07:05;;;;;;;2.03;0.80;;;15.20;99.90;;;;;;5063441;28;20286;-78
2023/10/21 06:09:31;;;;;;;1.90;0.77;;;15.20;99.90;;;;;;5069887;28;20192;-78
2023/10/21 06:11:57;;;;;;;1.97;0.67;;;15.20;99.90;;;;;;5074497;28;20945;-77
2023/10/21 06:14:22;;;;;;;3.67;0.70;;;15.30;99.90;;;;;;5092875;28;20616;-77
2023/10/21 06:16:48;;;;;;;2.30;0.80;;;15.30;99.90;;;;;;5074545;28;20636;-77
2023/10/21 06:19:16;;;;;;;1.30;0.60;;;15.30;99.90;;;;;;5092883;28;20222;-77
2023/10/21 06:21:42;;;;;;;2.43;1.00;;;15.30;99.90;;;;;;5092455;28;20581;-78
2023/10/21 06:24:08;;;;;;;1.30;0.60;;;15.40;99.90;;;;;;5074012;28;21206;-78
2023/10/21 06:26:34;;;;;;;1.73;0.60;;;15.40;99.90;;;;;;5092543;28;20634;-78
2023/10/21 06:29:00;;;;;;;1.90;0.90;;;15.50;99.90;;;;;;5086054;28;20980;-78
2023/10/21 06:31:26;;;;;;;1.33;0.53;;;15.50;99.90;;;;;;5080407;28;20566;-78
2023/10/21 06:33:55;;;;;;;2.00;0.70;;;15.50;99.90;;;;;;5092015;28;20585;-77
2023/10/21 06:36:21;;;;;;;1.77;0.60;;;15.50;99.90;;;;;;5089784;28;20617;-78
2023/10/21 06:38:50;;;;;;;1.83;0.60;;;15.60;99.90;;;;;;5057037;28;20585;-77
2023/10/21 06:41:17;;;;;;;3.30;0.80;;;15.60;99.90;;;;;;5095709;28;20519;-77
2023/10/21 06:43:43;;;;;;;2.20;0.60;;;15.60;99.90;;;;;;5092346;28;20660;-77
2023/10/21 06:46:09;;;;;;;2.37;0.63;;;15.60;99.90;;;;;;5088696;28;21117;-77
2023/10/21 06:48:34;;;;;;;3.33;0.80;;;15.70;99.90;;;;;;5087954;28;20584;-77
2023/10/21 06:51:00;;;;;;;1.97;0.60;;;15.70;99.90;;;;;;5091894;28;20183;-77
2023/10/21 06:53:28;;;;;;;3.63;0.60;;;15.80;99.90;;;;;;5091642;28;20174;-77
2023/10/21 06:55:54;;;;;;;3.63;0.70;;;15.80;99.90;;;;;;5073477;28;20200;-77
2023/10/21 06:58:20;;;;;;;1.43;0.60;;;15.80;99.90;;;;;;5073551;28;20581;-77
2023/10/21 07:00:46;;;;;;;2.10;0.60;;;15.80;99.90;;;;;;5091731;28;20625;-77
2023/10/21 07:03:12;;;;;;;1.60;0.63;;;15.90;99.90;;;;;;5056485;28;20320;-77
2023/10/21 07:05:40;;;;;;;1.53;0.60;;;16.00;99.90;;;;;;5091497;28;20638;-77
2023/10/21 07:08:06;;;;;;;2.90;0.67;;;16.00;99.90;;;;;;5073466;28;20184;-77
2023/10/21 07:10:32;;;;;;;1.50;0.60;;;16.10;99.90;;;;;;5056558;28;20672;-77
2023/10/21 07:12:59;;;;;;;1.60;0.60;;;16.10;99.90;;;;;;5091262;28;20229;-77
2023/10/21 07:15:27;;;;;;;1.97;0.60;;;16.10;99.90;;;;;;5073618;28;20613;-78
2023/10/21 07:17:54;;;;;;;1.50;0.50;;;16.20;99.90;;;;;;5076334;28;20593;-76
2023/10/21 07:20:20;;;;;;;1.20;0.50;;;16.20;99.90;;;;;;5091461;28;20578;-76
2023/10/21 07:22:46;;;;;;;1.50;0.50;;;16.20;99.90;;;;;;5072847;28;21331;-76
2023/10/21 07:25:12;;;;;;;1.63;0.57;;;16.20;99.90;;;;;;5072862;28;20649;-76
2023/10/21 07:27:38;;;;;;;1.83;0.60;;;16.20;99.90;;;;;;5091448;28;20579;-76
2023/10/21 07:30:04;;;;;;;1.10;0.50;;;16.20;99.90;;;;;;5073194;28;20270;-75
2023/10/21 07:32:30;;;;;;;1.20;0.50;;;16.20;99.90;;;;;;5072666;28;20593;-75
2023/10/21 07:34:56;;;;;;;1.50;0.63;;;16.20;99.90;;;;;;5072795;28;20582;-74
2023/10/21 07:37:22;;;;;;;1.30;0.50;;;16.30;99.90;;;;;;5086145;28;20578;-75
2023/10/21 07:39:47;;;;;;;1.20;0.50;;;16.20;99.90;;;;;;5061265;28;20614;-75
2023/10/21 07:42:14;;;;;;;2.10;0.60;;;16.20;99.90;;;;;;5072964;28;20180;-75
2023/10/21 07:44:41;;;;;;;1.50;0.40;;;16.20;99.90;;;;;;5072832;28;20180;-75
2023/10/21 07:47:07;;;;;;;1.20;0.50;;;16.20;99.90;;;;;;5072665;28;20637;-75
2023/10/21 07:49:33;;;;;;;2.13;0.50;;;16.20;99.90;;;;;;5090997;28;20597;-76
2023/10/21 07:51:59;;;;;;;1.30;0.37;;;16.20;99.90;;;;;;5090592;28;21129;-75
2023/10/21 07:54:25;;;;;;;4.17;0.43;;;16.20;99.90;;;;;;5094479;28;20179;-75
2023/10/21 07:56:52;;;;;;;1.10;0.40;;;16.20;99.90;;;;;;5072326;28;20645;-76
2023/10/21 07:59:19;;;;;;;1.30;0.40;;;16.20;99.90;;;;;;5090742;28;20664;-76
2023/10/21 08:01:45;;;;;;;1.10;0.40;;;16.30;99.90;;;;;;5072175;28;20628;-75
2023/10/21 08:04:11;;;;;;;1.20;0.40;;;16.30;99.90;;;;;;5070374;28;20606;-76
2023/10/21 08:06:38;;;;;;;1.63;0.40;;;16.30;99.90;;;;;;5070780;28;20645;-75
2023/10/21 08:09:04;;;;;;;1.47;0.40;;;16.40;99.90;;;;;;5071362;28;20605;-76
2023/10/21 08:11:33;;;;;;;1.20;0.40;;;16.40;99.90;;;;;;5071546;28;20643;-75
2023/10/21 08:13:58;;;;;;;1.10;0.40;;;16.50;99.90;;;;;;5071478;28;20586;-75
2023/10/21 08:16:24;;;;;;;1.60;0.40;;;16.60;99.90;;;;;;5087610;28;20625;-75
2023/10/21 08:18:50;;;;;;;1.10;0.30;;;16.90;99.90;;;;;;5078708;28;20201;-75
2023/10/21 08:21:16;;;;;;;1.50;0.40;;;17.40;99.90;;;;;;5072651;28;20168;-75
2023/10/21 08:23:42;;;;;;;1.30;0.40;;;18.10;99.90;;;;;;5090277;28;20940;-75
2023/10/21 08:26:08;;;;;;;2.13;0.40;;;19.00;99.90;;;;;;5068020;28;20645;-74
2023/10/21 08:28:34;;;;;;;1.73;0.50;;;20.00;99.90;;;;;;5066829;28;20200;-75
2023/10/21 08:31:00;;;;;;;1.30;0.40;;;21.00;99.90;;;;;;5052239;28;20590;-74
2023/10/21 08:33:26;;;;;;;1.37;0.40;;;21.60;99.90;;;;;;5057100;28;20164;-75
2023/10/21 08:35:52;;;;;;;1.30;0.40;;;21.90;99.90;;;;;;5090502;28;20620;-75
2023/10/21 08:38:18;;;;;;;1.20;0.40;;;22.10;99.90;;;;;;5051945;28;20610;-75
2023/10/21 08:40:46;;;;;;;1.30;0.40;;;22.40;99.90;;;;;;5052411;28;20548;-76
2023/10/21 08:43:17;;;;;;;1.20;0.40;;;22.50;99.90;;;;;;5054990;28;20262;-75
2023/10/21 08:45:44;;;;;;;1.40;0.40;;;22.40;99.90;;;;;;5090164;28;21060;-75
2023/10/21 08:48:11;;;;;;;1.60;0.50;;;22.20;99.90;;;;;;5090648;28;20641;-75
2023/10/21 08:50:39;;;;;;;1.60;0.50;;;22.00;99.90;;;;;;5072323;28;20577;-75
2023/10/21 08:53:06;;;;;;;1.47;0.57;;;21.80;99.90;;;;;;5071765;28;20578;-75
2023/10/21 08:55:35;;;;;;;2.53;0.60;;;21.60;99.90;;;;;;5090204;28;20644;-75
2023/10/21 08:58:01;;;;;;;1.67;0.50;;;21.50;99.90;;;;;;5055320;28;20594;-75
2023/10/21 09:00:27;;;;;;;3.97;0.70;;;21.60;99.90;;;;;;5072106;28;20593;-75
2023/10/21 09:02:53;;;;;;;1.37;0.60;;;21.70;99.90;;;;;;5089862;28;20675;-75
2023/10/21 09:05:19;;;;;;;2.03;0.50;;;22.10;99.90;;;;;;5038712;28;20207;-75
2023/10/21 09:07:46;;;;;;;2.27;0.60;;;22.70;99.90;;;;;;5090165;28;20588;-76
2023/10/21 09:10:12;;;;;;;1.50;0.50;;;23.50;99.90;;;;;;5073758;28;20171;-75
2023/10/21 09:12:38;;;;;;;1.73;0.40;;;24.50;99.90;;;;;;5093679;28;20580;-76
2023/10/21 09:15:05;;;;;;;1.60;0.50;;;25.30;99.90;;;;;;5093470;28;20588;-76
2023/10/21 09:17:35;;;;;;;1.53;0.40;;;26.20;99.90;;;;;;5093705;28;20180;-76
2023/10/21 09:20:15;;;;;;;1.53;0.50;;;26.90;99.90;;;;;;5093559;28;20592;-76
2023/10/21 09:22:43;;;;;;;1.30;0.50;;;27.60;99.90;;;;;;5093316;28;20573;-76
2023/10/21 09:25:20;;;;;;;1.43;0.60;;;28.20;99.90;;;;;;5093285;28;20645;-76
2023/10/21 09:27:55;;;;;;;2.33;0.50;;;28.80;99.90;;;;;;5093651;28;20646;-76
2023/10/21 09:30:23;;;;;;;1.60;0.40;;;29.50;99.90;;;;;;5075456;28;20591;-76
2023/10/21 09:32:49;;;;;;;2.03;0.40;;;30.00;99.90;;;;;;5077038;28;20589;-76
2023/10/21 09:35:27;;;;;;;1.63;0.60;;;30.40;99.90;;;;;;5078987;28;21231;-76
2023/10/21 09:37:53;;;;;;;1.60;0.60;;;30.50;99.90;;;;;;5055469;28;20586;-76
2023/10/21 09:40:21;;;;;;;1.30;0.40;;;30.70;99.90;;;;;;5093169;28;20685;-76
2023/10/21 09:42:52;;;;;;;2.77;0.90;;;30.90;99.90;;;;;;5075099;28;20769;-76
2023/10/21 09:45:18;;;;;;;3.27;0.60;;;31.10;99.90;;;;;;5065933;28;20671;-75
2023/10/21 09:47:45;;;;;;;1.50;0.50;;;31.20;99.90;;;;;;5064917;28;20585;-76
2023/10/21 09:50:13;;;;;;;1.90;0.60;;;31.50;99.90;;;;;;5092555;28;20589;-76
2023/10/21 09:53:24;;;;;;;2.43;0.40;;;31.50;99.90;;;;;;5074826;28;20614;-76
2023/10/21 09:55:51;;;;;;;1.47;0.43;;;31.60;99.90;;;;;;5072841;28;20690;-76
2023/10/21 09:58:19;;;;;;;2.10;0.50;;;31.80;99.90;;;;;;5074761;28;20582;-76
2023/10/21 10:00:46;;;;;;;1.77;0.40;;;31.90;99.90;;;;;;5092892;28;20581;-75
2023/10/21 10:03:14;;;;;;;1.30;0.40;;;31.80;99.90;;;;;;5074539;28;20990;-75
2023/10/21 10:05:41;;;;;;;2.00;0.70;;;31.40;98.10;;;;;;5092656;28;20689;-75
2023/10/21 10:08:08;;;;;;;1.50;0.50;;;30.90;96.60;;;;;;5074554;28;20583;-75
2023/10/21 10:10:38;;;;;;;1.83;0.50;;;30.30;95.80;;;;;;5092672;28;20586;-75
2023/10/21 10:13:09;;;;;;;1.30;0.40;;;29.60;94.20;;;;;;5074210;28;20574;-75
2023/10/21 10:15:40;;;;;;;2.93;0.50;;;29.10;89.10;;;;;;5074342;28;20649;-75
2023/10/21 10:18:18;;;;;;;1.80;0.40;;;28.70;95.50;;;;;;5074368;28;20628;-75
2023/10/21 10:20:51;;;;;;;1.40;0.40;;;28.30;96.00;;;;;;5092144;28;20578;-75
2023/10/21 10:23:24;;;;;;;1.40;0.40;;;28.10;96.70;;;;;;5091884;28;21050;-75
2023/10/21 10:25:51;;;;;;;1.20;0.40;;;27.90;96.60;;;;;;5092254;28;20740;-75
2023/10/21 10:28:25;;;;;;;1.40;0.50;;;27.80;97.40;;;;;;5074218;28;21144;-75
2023/10/21 10:30:53;;;;;;;1.43;0.50;;;27.70;96.60;;;;;;5092261;28;20578;-75
2023/10/21 10:33:34;;;;;;;2.00;0.43;;;27.60;98.30;;;;;;5073601;28;20577;-75
2023/10/21 10:36:06;;;;;;;1.60;0.50;;;27.60;97.80;;;;;;5091774;28;21029;-75
2023/10/21 10:38:41;;;;;;;1.60;0.57;;;27.60;98.50;;;;;;5067928;28;20586;-79
2023/10/21 10:41:11;;;;;;;1.33;0.47;;;27.60;97.70;;;;;;5077745;28;20585;-79
2023/10/21 10:43:43;;;;;;;1.93;0.50;;;27.60;97.20;;;;;;5112771;28;20585;-79
2023/10/21 10:46:09;;;;;;;3.23;0.57;;;27.80;97.40;;;;;;5079855;28;20732;-78
2023/10/21 10:48:35;;;;;;;1.30;0.40;;;27.80;96.70;;;;;;5091970;28;20586;-77
2023/10/21 10:54:48;;;;;;;2.20;0.50;;;27.60;94.70;;;;;;5055670;28;20190;-78
2023/10/21 10:57:17;;;;;;;1.30;0.40;;;27.40;96.00;;;;;;5045192;28;20717;-78
2023/10/21 10:59:42;;;;;;;1.47;0.50;;;27.40;95.40;;;;;;5071402;28;20591;-78
2023/10/21 11:02:14;;;;;;;1.40;0.50;;;27.20;95.20;;;;;;5075303;28;20586;-79
2023/10/21 11:04:46;;;;;;;1.40;0.50;;;27.10;95.80;;;;;;5087241;28;20187;-80
2023/10/21 11:07:11;;;;;;;2.10;0.50;;;27.00;95.60;;;;;;5090282;28;20676;-78
2023/10/21 11:09:38;;;;;;;1.63;0.40;;;27.10;96.60;;;;;;5071939;28;20590;-79
2023/10/21 11:12:04;;;;;;;1.60;0.60;;;27.20;96.80;;;;;;5061862;28;20542;-78
2023/10/21 11:14:29;;;;;;;1.43;0.40;;;27.30;97.10;;;;;;5079400;28;20600;-78
2023/10/21 11:16:55;;;;;;;1.60;0.40;;;27.30;96.30;;;;;;5089321;28;20624;-79
2023/10/21 11:19:23;;;;;;;2.20;0.43;;;27.30;95.70;;;;;;5075810;28;20216;-79
2023/10/21 11:21:49;;;;;;;1.60;0.43;;;27.30;95.60;;;;;;5093980;28;20586;-79
2023/10/21 11:24:15;;;;;;;1.30;0.40;;;27.20;95.60;;;;;;5075740;28;20596;-79
2023/10/21 11:26:42;;;;;;;1.70;0.50;;;27.30;95.40;;;;;;5093810;28;20997;-79
2023/10/21 11:29:08;;;;;;;1.30;0.50;;;27.20;95.10;;;;;;5078756;28;20613;-79
2023/10/21 11:31:35;;;;;;;1.57;0.53;;;27.20;95.40;;;;;;5063120;28;20586;-79
2023/10/21 11:34:15;;;;;;;1.63;0.50;;;27.20;95.10;;;;;;5090280;28;20597;-79
2023/10/21 11:36:44;;;;;;;1.30;0.40;;;27.00;93.10;;;;;;5072138;28;20710;-78
2023/10/21 11:39:13;;;;;;;2.00;0.50;;;27.00;94.50;;;;;;5054381;28;20589;-79
2023/10/21 11:41:46;;;;;;;2.10;1.17;;;26.90;94.00;;;;;;5082929;28;20582;-79
2023/10/21 11:44:13;;;;;;;1.90;0.60;;;26.60;93.00;;;;;;5091061;28;20594;-79
2023/10/21 11:46:39;;;;;;;4.20;0.87;;;26.30;92.30;;;;;;5072756;28;20682;-77
2023/10/21 11:49:13;;;;;;;2.53;0.50;;;26.00;91.80;;;;;;5090860;28;20590;-77
2023/10/21 11:51:41;;;;;;;2.60;0.60;;;25.50;90.50;;;;;;5072672;28;20657;-77
2023/10/21 11:54:23;;;;;;;1.60;0.60;;;25.00;89.50;;;;;;5056022;28;20645;-77
2023/10/21 12:05:50;;;;;;;2.20;0.70;;;23.30;90.00;;;;;;5078475;28;20650;-77
2023/10/21 12:22:47;;;;;;;4.00;0.60;;;21.60;91.60;;;;;;5086301;28;20590;-76
2023/10/21 12:40:35;;;;;;;2.77;0.70;;;20.70;93.50;;;;;;5047595;28;20639;-76
2023/10/21 12:45:58;;;;;;;3.10;0.73;;;20.60;94.00;;;;;;5083505;28;20678;-75
2023/10/21 12:48:25;;;;;;;3.13;0.77;;;20.60;93.90;;;;;;5074450;28;20622;-75
2023/10/21 12:50:51;;;;;;;2.57;0.70;;;20.50;94.20;;;;;;5056381;28;20595;-76
2023/10/21 12:53:20;;;;;;;2.90;0.90;;;20.50;94.30;;;;;;5091864;28;20582;-75
2023/10/21 12:55:49;;;;;;;4.17;0.80;;;20.50;94.20;;;;;;5077945;28;20617;-74
2023/10/21 12:58:15;;;;;;;2.90;0.80;;;20.50;94.30;;;;;;5072567;28;21064;-74
2023/10/21 13:00:43;;;;;;;6.20;0.93;;;20.50;94.70;;;;;;5070410;28;20618;-74
2023/10/21 13:03:13;;;;;;;2.20;0.60;;;20.50;95.00;;;;;;5052404;28;20165;-74
2023/10/21 13:05:39;;;;;;;3.90;0.70;;;20.50;94.90;;;;;;5043255;28;20649;-74
2023/10/21 13:08:09;;;;;;;4.53;0.70;;;20.50;94.90;;;;;;5077616;28;20606;-73
2023/10/21 13:10:36;;;;;;;3.17;1.13;;;20.40;94.30;;;;;;5053585;28;20604;-74
2023/10/21 13:13:03;;;;;;;5.73;0.80;;;20.40;94.30;;;;;;5055559;28;20575;-74
2023/10/21 13:15:29;;;;;;;2.47;0.60;;;20.30;94.40;;;;;;5084566;28;20621;-75
2023/10/21 13:17:55;;;;;;;3.27;0.70;;;20.30;94.10;;;;;;5093676;28;20610;-74
2023/10/21 13:20:21;;;;;;;3.00;0.70;;;20.20;93.60;;;;;;5093698;28;20734;-77
2023/10/21 13:22:47;;;;;;;3.30;0.77;;;20.20;94.20;;;;;;5075286;28;20172;-75
2023/10/21 13:25:13;;;;;;;3.23;0.80;;;20.20;94.40;;;;;;5072129;28;20200;-75
2023/10/21 13:27:40;;;;;;;2.87;1.07;;;20.10;94.30;;;;;;5058044;28;20587;-74
2023/10/21 13:30:16;;;;;;;3.83;0.60;;;20.10;94.60;;;;;;5063376;28;20589;-75
2023/10/21 13:32:47;;;;;;;3.20;0.90;;;20.20;95.10;;;;;;5093458;28;20630;-75